Huvudsida
METAR-TAF:

METAR-TAF

Flygplatser :

Oljeplattform

Snorre B, Norge

latitud: 61-32N, longitud: 2-12E, höjd: 90 m

Aktuellt väderrapport

Denna rapport gjordes för 27 minuter sedan, klockan 17:50 UTC
Vind 57 kt från syd/sydost
Temperatur 6°C
Fuktighet 75%
Tryck 1002 hPa
Sikt: 9000 m

METAR: ENQR 161750Z AUTO 15057KT 9000NDV OVC023/// 06/02 Q1002 W///S8

Tid: 19:17 (18:17 UTC)


TAF: saknas

Aktuella väderrapporter och prognoser från 4000 flygplatser (METAR- och TAF-rapporter).

De tillgängliga stationerna syns som gula och röda prickar på kartan.

För musen över prickarna för att se namnen på stationerna.

Klicka sedan för att få väderrapporter och prognoser.

För att ändra kartan: Klicka på de gröna knapparna med ett svart kors på för att zooma in; den gröna knappen med ett streck på för att zooma ut; eller på de gröna pilarna för angränsande kartor.


METAR-TAF: